Home > Products > Valid Products > MTR

000
SAUS44 KMEG 250600 COR
MTRTUP
METAR KTUP 250553Z AUTO 10004KT 10SM CLR 22/16 A3008 RMK AO2 SLP183
T02220161 10294 20211 403170156 58004





000
SAUS44 KMEG 250357 COR
MTRTUP
METAR KTUP 250353Z AUTO 17003KT 10SM CLR 23/15 A3012 RMK AO2 SLP195
T02280150





000
SAUS44 KMEG 250058 COR
MTRTUP
METAR KTUP 250053Z 13005KT 10SM CLR 27/13 A3006 RMK AO2 SLP174
T02720133





000
SAUS44 KMEG 242357 COR
MTRTUP
METAR KTUP 242353Z 12007KT 10SM CLR 29/13 A3004 RMK AO2 SLP170
T02940133 10317 20294 55006





000
SAUS44 KMEG 241958 COR
MTRTUP
METAR KTUP 241953Z 15010G15KT 10SM CLR 31/13 A3007 RMK AO2 SLP178
T03110128





000
SAUS44 KMEG 241758 COR
MTRTUP
METAR KTUP 241753Z 17009KT 10SM CLR 30/13 A3009 RMK AO2 SLP185
T03000128 10300 20183 58007





000
SAUS44 KMEG 241500 COR
MTRTUP
METAR KTUP 241453Z 16008KT 10SM CLR 26/14 A3011 RMK AO2 SLP192
T02610139 51016





000
SAUS44 KMEG 241258 COR
MTRTUP
METAR KTUP 241253Z 14004KT 10SM CLR 21/14 A3009 RMK AO2 SLP184
T02060144





000
SAUS44 KMEG 241157 COR
MTRTUP
METAR KTUP 241153Z 00000KT 10SM CLR 18/14 A3006 RMK AO2 SLP176
T01830144 10183 20156 53014





000
SAUS44 KMEG 241057 COR
MTRTUP
METAR KTUP 241053Z 00000KT 10SM CLR 16/13 A3004 RMK AO2 SLP168
T01610133





000
SAUS44 KMEG 240957 COR
MTRTUP
METAR KTUP 240953Z AUTO 00000KT 10SM CLR 16/13 A3003 RMK AO2 SLP165
T01610128





000
SAUS44 KMEG 240558 COR
MTRTUP
METAR KTUP 240553Z AUTO 00000KT 10SM CLR 17/13 A3000 RMK AO2 SLP154
T01670133 10272 20167 402940117 58000





000
SAUS44 KMEG 240458 COR
MTRTUP
METAR KTUP 240453Z AUTO 00000KT 10SM CLR 18/13 A3000 RMK AO2 SLP155
T01780133





000
SAUS44 KMEG 240058 COR
MTRTUP
METAR KTUP 240053Z 00000KT 10SM CLR 24/12 A2995 RMK AO2 SLP137
T02440122





000
SAUS44 KMEG 232358 COR
MTRTUP
METAR KTUP 232353Z 00000KT 10SM CLR 27/11 A2995 RMK AO2 SLP138
T02720106 10294 20272 56004





000
SAUS44 KMEG 232258 COR
MTRTUP
METAR KTUP 232253Z 27004KT 10SM CLR 28/10 A2995 RMK AO2 SLP138
T02830100





000
SAUS44 KMEG 231858 COR
MTRTUP
METAR KTUP 231853Z 23006KT 10SM CLR 29/08 A3001 RMK AO2 SLP159
T02890078





000
SAUS44 KMEG 231657 COR
MTRTUP
METAR KTUP 231653Z 10003KT 10SM CLR 27/08 A3004 RMK AO2 SLP168
T02670078





000
SAUS44 KMEG 231358 COR
MTRTUP
METAR KTUP 231353Z 00000KT 10SM CLR 22/11 A3003 RMK AO2 SLP165
T02170111





000
SAUS44 KMEG 231258 COR
MTRTUP
METAR KTUP 231253Z 36003KT 10SM CLR 17/12 A3001 RMK AO2 SLP160
T01720117 $





000
SAUS44 KMEG 231158 COR
MTRTUP
METAR KTUP 231153Z 00000KT 10SM CLR 14/11 A3001 RMK AO2 SLP160
T01390111 10150 20117 51007 $





000
SAUS44 KMEG 230658 COR
MTRTUP
METAR KTUP 230653Z AUTO 36004KT 10SM CLR 14/11 A2999 RMK AO2 SLP152
T01390106 $





000
SAUS44 KMEG 230557 COR
MTRTUP
METAR KTUP 230553Z AUTO 00000KT 10SM CLR 15/10 A3000 RMK AO2 SLP155
T01500100 10256 20150 402780128 52002 $





000
SAUS44 KMEG 230457 COR
MTRTUP
METAR KTUP 230453Z AUTO 00000KT 10SM CLR 16/11 A3000 RMK AO2 SLP153
T01610106 $





000
SAUS44 KMEG 230157 COR
MTRTUP
METAR KTUP 230153Z 00000KT 10SM CLR 20/09 A2998 RMK AO2 SLP149
T02000094 $





000
SAUS44 KMEG 230058 COR
MTRTUP
METAR KTUP 230053Z 35003KT 10SM CLR 23/08 A2998 RMK AO2 SLP150
T02330078 $





000
SAUS44 KMEG 222358 COR
MTRTUP
METAR KTUP 222353Z 34005KT 10SM CLR 26/07 A2998 RMK AO2 SLP150
T02560072 10278 20256 56006 $





000
SAUS44 KMEG 222258 COR
MTRTUP
METAR KTUP 222253Z 36005KT 10SM CLR 27/06 A2999 RMK AO2 SLP151
T02670061 $





000
SAUS44 KMEG 221958 COR
MTRTUP
METAR KTUP 221953Z 34011KT 10SM CLR 28/07 A3002 RMK AO2 SLP163
T02780072 $





000
SAUS44 KMEG 221857 COR
MTRTUP
METAR KTUP 221853Z 36010G17KT 10SM CLR 27/07 A3004 RMK AO2 SLP170
T02670072 $





000
SAUS44 KMEG 221757 COR
MTRTUP
METAR KTUP 221753Z 01009G15KT 10SM CLR 26/07 A3006 RMK AO2 SLP174
T02610072 10272 20150 58013 $





000
SAUS44 KMEG 221500 COR
MTRTUP
METAR KTUP 221453Z 02007KT 10SM CLR 23/13 A3009 RMK AO2 SLP187
T02280128 58001 $





000
SAUS44 KMEG 221400 COR
MTRTUP
METAR KTUP 221353Z 35007KT 10SM CLR 21/13 A3010 RMK AO2 SLP190
T02060128 $





000
SAUS44 KMEG 221300 COR
MTRTUP
METAR KTUP 221253Z 36005KT 10SM CLR 18/13 A3010 RMK AO2 SLP191
T01780128 $





000
SAUS44 KMEG 221158 COR
MTRTUP
METAR KTUP 221153Z 35003KT 10SM CLR 15/12 A3010 RMK AO2 SLP188
T01500122 10156 20128 53006 $





000
SAUS44 KMEG 220859 COR
MTRTUP
METAR KTUP 220853Z AUTO 35005KT 10SM CLR 13/11 A3008 RMK AO2 SLP182
T01330106 55000 $





    US Dept of Commerce
    National Oceanic and Atmospheric Administration
    National Weather Service
    1325 East West Highway
    Silver Spring, MD 20910
    Page Author: NWS Internet Services Team
Disclaimer
Information Quality
Credits
Glossary
Privacy Policy
Freedom of Information Act (FOIA)
About Us
Career Opportunities